Terminal Aerodrome Forecast
Issued by NWS

Home | Current Version | Previous Version | Text Only | Print | Product List | Glossary On
Versions: 1 2 3 4 5 6 7 8 9 10 11 12 13 14 15
324
FTUS43 KMPX 241336 AAA
TAFAXN
TAF AMD
KAXN 241336Z 2414/2512 07009KT 6SM BR BKN004
     FM241415 VRB06KT P6SM FEW008
     FM241800 21006KT P6SM SCT050 SCT150
     FM250200 11005KT P6SM BKN250=

USA.gov is the U.S. government's official web portal to all federal, state and local government web resources and services.